createdAt,value
2018-05-23T00:00:56.907Z,17.50
2018-05-23T00:03:24.359Z,17.50
2018-05-23T00:05:51.831Z,17.60
2018-05-23T00:08:20.063Z,17.60
2018-05-23T00:10:47.506Z,17.60
2018-05-23T00:13:14.952Z,17.60
2018-05-23T00:15:42.409Z,17.60
2018-05-23T00:18:09.838Z,17.60
2018-05-23T00:20:37.281Z,17.60
2018-05-23T00:23:04.719Z,17.60
2018-05-23T00:25:32.219Z,17.70
2018-05-23T00:27:59.656Z,17.60
2018-05-23T00:30:27.102Z,17.70
2018-05-23T00:32:54.547Z,17.70
2018-05-23T00:35:22.003Z,17.80
2018-05-23T00:37:49.461Z,17.80
2018-05-23T00:40:16.919Z,17.70
2018-05-23T00:42:44.386Z,17.70
2018-05-23T00:45:11.846Z,17.70
2018-05-23T00:47:40.066Z,17.70
2018-05-23T00:50:07.522Z,17.70
2018-05-23T00:52:34.980Z,17.70
2018-05-23T00:55:15.000Z,17.60
2018-05-23T00:57:42.447Z,17.60
2018-05-23T01:00:09.921Z,17.60
2018-05-23T01:02:37.358Z,17.40
2018-05-23T01:05:05.578Z,17.40
2018-05-23T01:07:33.035Z,17.40
2018-05-23T01:10:00.494Z,17.40
2018-05-23T01:12:28.715Z,17.30
2018-05-23T01:14:56.179Z,17.30
2018-05-23T01:17:25.078Z,17.20
2018-05-23T01:19:52.523Z,17.20
2018-05-23T01:22:20.765Z,17.30
2018-05-23T01:24:48.227Z,17.30
2018-05-23T01:27:16.431Z,17.30
2018-05-23T01:29:43.869Z,17.30
2018-05-23T01:32:11.326Z,17.30
2018-05-23T01:34:38.781Z,17.30
2018-05-23T01:37:06.241Z,17.40
2018-05-23T01:39:33.678Z,17.40
2018-05-23T01:42:01.135Z,17.30
2018-05-23T01:44:29.350Z,17.30
2018-05-23T01:46:56.786Z,17.30
2018-05-23T01:49:26.189Z,17.40
2018-05-23T01:51:53.646Z,17.40
2018-05-23T01:54:21.101Z,17.30
2018-05-23T01:56:48.567Z,17.20
2018-05-23T01:59:16.778Z,17.20
2018-05-23T02:01:44.256Z,17.20
2018-05-23T02:04:12.470Z,17.30
2018-05-23T02:06:39.926Z,17.30
2018-05-23T02:09:07.406Z,17.20
2018-05-23T02:11:35.638Z,17.10
2018-05-23T02:14:03.094Z,17.00
2018-05-23T02:16:31.018Z,17.00
2018-05-23T02:18:58.450Z,17.00
2018-05-23T02:21:25.904Z,17.10
2018-05-23T02:23:53.355Z,17.10
2018-05-23T02:26:20.827Z,17.10
2018-05-23T02:28:48.287Z,17.10
2018-05-23T02:31:15.739Z,17.10
2018-05-23T02:33:43.179Z,17.20
2018-05-23T02:36:10.667Z,17.20
2018-05-23T02:38:38.111Z,17.20
2018-05-23T02:41:05.549Z,17.20
2018-05-23T02:43:33.003Z,17.20
2018-05-23T02:46:01.270Z,17.20
2018-05-23T02:48:28.738Z,17.20
2018-05-23T02:50:56.186Z,17.30
2018-05-23T02:53:23.656Z,17.30
2018-05-23T02:55:51.119Z,17.30
2018-05-23T02:58:18.577Z,17.30
2018-05-23T03:00:46.045Z,17.20
2018-05-23T03:03:13.483Z,17.20
2018-05-23T03:05:40.954Z,17.10
2018-05-23T03:08:09.181Z,16.90
2018-05-23T03:10:36.632Z,16.90
2018-05-23T03:13:04.121Z,16.90
2018-05-23T03:15:31.567Z,16.80
2018-05-23T03:17:59.026Z,16.80
2018-05-23T03:20:26.481Z,16.80
2018-05-23T03:22:53.966Z,16.80
2018-05-23T03:25:22.210Z,16.80
2018-05-23T03:27:50.482Z,16.80
2018-05-23T03:30:18.687Z,16.90
2018-05-23T03:32:49.384Z,16.80
2018-05-23T03:35:16.839Z,16.80
2018-05-23T03:37:44.293Z,16.80
2018-05-23T03:40:11.755Z,16.80
2018-05-23T03:42:39.212Z,16.80
2018-05-23T03:45:06.674Z,16.80
2018-05-23T03:47:34.917Z,16.80
2018-05-23T03:50:02.346Z,16.80
2018-05-23T03:52:29.793Z,16.90
2018-05-23T03:54:57.266Z,16.80
2018-05-23T03:57:24.699Z,16.80
2018-05-23T04:00:03.980Z,16.80
2018-05-23T04:02:57.109Z,16.90
2018-05-23T04:05:36.414Z,16.90
2018-05-23T04:08:04.712Z,16.90
2018-05-23T04:10:32.186Z,16.90
2018-05-23T04:12:59.629Z,16.90
2018-05-23T04:15:27.108Z,16.90
2018-05-23T04:17:56.295Z,16.90
2018-05-23T04:20:23.745Z,16.90
2018-05-23T04:22:51.187Z,16.80
2018-05-23T04:25:18.634Z,16.80
2018-05-23T04:27:46.090Z,16.80
2018-05-23T04:30:13.543Z,16.80
2018-05-23T04:32:41.001Z,16.80
2018-05-23T04:35:08.466Z,16.70
2018-05-23T04:37:36.678Z,16.80
2018-05-23T04:40:04.142Z,16.70
2018-05-23T04:42:31.590Z,16.80
2018-05-23T04:44:59.029Z,16.90
2018-05-23T04:47:26.506Z,16.90
2018-05-23T04:49:53.959Z,16.90
2018-05-23T04:52:21.422Z,17.00
2018-05-23T04:54:48.910Z,17.00
2018-05-23T04:57:16.337Z,17.00
2018-05-23T04:59:43.792Z,17.10
2018-05-23T05:02:11.230Z,17.10
2018-05-23T05:04:38.687Z,17.20
2018-05-23T05:07:06.157Z,17.20
2018-05-23T05:09:34.393Z,17.30
2018-05-23T05:12:02.597Z,17.30
2018-05-23T05:14:30.069Z,17.20
2018-05-23T05:16:57.520Z,17.30
2018-05-23T05:19:24.982Z,17.30
2018-05-23T05:21:52.435Z,17.40
2018-05-23T05:24:19.889Z,17.40
2018-05-23T05:26:48.120Z,17.50
2018-05-23T05:29:15.579Z,17.50
2018-05-23T05:31:43.051Z,17.50
2018-05-23T05:34:10.503Z,17.60
2018-05-23T05:36:37.956Z,17.70
2018-05-23T05:39:05.441Z,17.70
2018-05-23T05:41:32.910Z,17.80
2018-05-23T05:44:00.470Z,17.90
2018-05-23T05:46:27.928Z,18.00
2018-05-23T05:48:55.429Z,18.10
2018-05-23T05:51:23.012Z,18.10
2018-05-23T05:53:51.210Z,18.30
2018-05-23T05:56:18.679Z,18.40
2018-05-23T05:58:46.903Z,18.60
2018-05-23T06:01:14.350Z,18.60
2018-05-23T06:03:41.816Z,18.70
2018-05-23T06:06:09.264Z,18.80
2018-05-23T06:08:36.721Z,18.90
2018-05-23T06:11:04.942Z,19.00
2018-05-23T06:13:32.393Z,19.00
2018-05-23T06:15:59.862Z,19.10
2018-05-23T06:18:27.322Z,19.30
2018-05-23T06:20:54.767Z,19.30
2018-05-23T06:23:22.227Z,19.40
2018-05-23T06:25:49.690Z,19.50
2018-05-23T06:28:17.138Z,19.50
2018-05-23T06:30:44.602Z,19.70
2018-05-23T06:33:12.054Z,19.90
2018-05-23T06:35:39.517Z,20.00
2018-05-23T06:38:07.728Z,20.10
2018-05-23T06:40:35.200Z,20.10
2018-05-23T06:43:02.634Z,20.40
2018-05-23T06:45:30.074Z,20.60
2018-05-23T06:47:57.523Z,20.80
2018-05-23T06:50:24.982Z,20.90
2018-05-23T06:52:52.442Z,21.10
2018-05-23T06:55:19.937Z,21.20
2018-05-23T06:57:47.446Z,21.30
2018-05-23T07:00:14.921Z,21.60
2018-05-23T07:02:42.362Z,21.70
2018-05-23T07:05:09.812Z,21.70
2018-05-23T07:07:37.285Z,21.40
2018-05-23T07:10:04.734Z,21.40
2018-05-23T07:12:35.418Z,21.70
2018-05-23T07:15:02.880Z,21.70
2018-05-23T07:17:30.342Z,21.90
2018-05-23T07:19:57.810Z,21.90
2018-05-23T07:22:25.506Z,21.90
2018-05-23T07:24:52.961Z,22.00
2018-05-23T07:27:21.002Z,22.20
2018-05-23T07:29:49.172Z,22.30
2018-05-23T07:32:17.162Z,22.50
2018-05-23T07:34:44.625Z,22.50
2018-05-23T07:37:12.069Z,22.70
2018-05-23T07:39:39.542Z,22.80
2018-05-23T07:42:06.998Z,22.90
2018-05-23T07:44:36.744Z,23.00
2018-05-23T07:47:04.183Z,23.20
2018-05-23T07:49:31.651Z,22.90
2018-05-23T07:51:59.094Z,22.90
2018-05-23T07:54:26.550Z,22.90
2018-05-23T07:56:53.996Z,23.00
2018-05-23T07:59:21.466Z,23.00
2018-05-23T08:01:49.699Z,23.10
2018-05-23T08:04:17.144Z,23.10
2018-05-23T08:06:45.420Z,23.20
2018-05-23T08:09:12.871Z,23.40
2018-05-23T08:11:41.084Z,23.20
2018-05-23T08:14:08.531Z,23.20
2018-05-23T08:16:35.979Z,23.00
2018-05-23T08:19:03.422Z,22.70
2018-05-23T08:21:30.882Z,22.60
2018-05-23T08:23:58.336Z,23.10
2018-05-23T08:26:26.562Z,22.80
2018-05-23T08:28:53.995Z,22.80
2018-05-23T08:31:21.454Z,23.10
2018-05-23T08:33:48.942Z,23.60
2018-05-23T08:36:16.444Z,23.30
2018-05-23T08:38:44.609Z,23.60
2018-05-23T08:41:12.067Z,23.60
2018-05-23T08:43:39.521Z,24.10
2018-05-23T08:46:07.848Z,25.20
2018-05-23T08:48:35.211Z,25.20
2018-05-23T08:51:02.643Z,25.50
2018-05-23T08:53:30.078Z,25.70
2018-05-23T08:55:57.537Z,26.00
2018-05-23T08:58:25.031Z,26.30
2018-05-23T09:00:52.506Z,26.60
2018-05-23T09:03:19.947Z,26.00
2018-05-23T09:05:47.386Z,25.40
2018-05-23T09:08:14.852Z,25.40
2018-05-23T09:10:42.298Z,25.00
2018-05-23T09:13:09.766Z,25.40
2018-05-23T09:15:37.959Z,26.10
2018-05-23T09:18:05.417Z,26.10
2018-05-23T09:20:32.856Z,25.70
2018-05-23T09:23:00.287Z,25.50
2018-05-23T09:25:27.780Z,25.40
2018-05-23T09:27:55.194Z,25.60
2018-05-23T09:30:22.646Z,26.10
2018-05-23T09:32:50.107Z,26.10
2018-05-23T09:35:17.562Z,26.30
2018-05-23T09:37:46.860Z,26.50
2018-05-23T09:40:14.342Z,26.50
2018-05-23T09:42:41.778Z,26.40
2018-05-23T09:45:09.263Z,26.80
2018-05-23T09:47:36.694Z,26.90
2018-05-23T09:50:04.153Z,27.00
2018-05-23T09:52:32.359Z,26.20
2018-05-23T09:54:59.890Z,26.10
2018-05-23T09:57:27.267Z,26.60
2018-05-23T09:59:54.709Z,27.30
2018-05-23T10:02:22.176Z,27.80
2018-05-23T10:04:49.633Z,27.80
2018-05-23T10:07:17.109Z,27.60
2018-05-23T10:09:45.034Z,27.20
2018-05-23T10:12:13.242Z,26.80
2018-05-23T10:14:40.698Z,26.70
2018-05-23T10:17:08.158Z,27.30
2018-05-23T10:19:35.598Z,27.60
2018-05-23T10:22:03.071Z,28.00
2018-05-23T10:24:30.581Z,27.80
2018-05-23T10:26:58.057Z,27.90
2018-05-23T10:29:26.262Z,27.60
2018-05-23T10:31:53.719Z,27.60
2018-05-23T10:34:21.279Z,27.70
2018-05-23T10:36:49.556Z,27.80
2018-05-23T10:39:17.064Z,27.80
2018-05-23T10:41:44.543Z,28.40
2018-05-23T10:44:12.847Z,28.80
2018-05-23T10:46:40.305Z,28.20
2018-05-23T10:49:07.749Z,27.90
2018-05-23T10:51:35.365Z,26.70
2018-05-23T10:54:02.808Z,26.20
2018-05-23T10:56:30.304Z,26.00
2018-05-23T10:58:57.798Z,26.10
2018-05-23T11:01:25.346Z,26.20
2018-05-23T11:03:52.778Z,25.70
2018-05-23T11:06:20.237Z,25.30
2018-05-23T11:08:47.706Z,24.70
2018-05-23T11:11:15.166Z,24.30
2018-05-23T11:13:42.607Z,24.10
2018-05-23T11:16:10.066Z,24.00
2018-05-23T11:18:37.531Z,24.00
2018-05-23T11:21:05.733Z,24.00
2018-05-23T11:23:33.190Z,24.00
2018-05-23T11:26:00.645Z,23.90
2018-05-23T11:28:29.034Z,23.90
2018-05-23T11:30:57.346Z,23.80
2018-05-23T11:33:24.795Z,23.80
2018-05-23T11:35:52.225Z,23.80
2018-05-23T11:38:19.674Z,24.00
2018-05-23T11:40:47.125Z,23.90
2018-05-23T11:43:14.561Z,23.90
2018-05-23T11:45:42.043Z,24.00
2018-05-23T11:48:09.479Z,24.30
2018-05-23T11:50:36.949Z,24.50
2018-05-23T11:53:05.161Z,24.00
2018-05-23T11:55:32.758Z,24.00
2018-05-23T11:58:00.338Z,23.90
2018-05-23T12:00:27.787Z,24.10
2018-05-23T12:02:55.220Z,24.20
2018-05-23T12:05:22.687Z,24.20
2018-05-23T12:07:50.136Z,23.90
2018-05-23T12:10:17.661Z,23.90
2018-05-23T12:12:45.052Z,24.00
2018-05-23T12:15:13.257Z,24.30
2018-05-23T12:17:40.713Z,24.30
2018-05-23T12:20:08.170Z,24.50
2018-05-23T12:22:35.623Z,24.60
2018-05-23T12:25:03.090Z,24.80
2018-05-23T12:27:30.542Z,24.70
2018-05-23T12:29:58.002Z,24.80
2018-05-23T12:32:25.443Z,24.80
2018-05-23T12:34:52.890Z,24.60
2018-05-23T12:37:20.348Z,24.80
2018-05-23T12:39:47.773Z,25.00
2018-05-23T12:42:15.230Z,25.10
2018-05-23T12:44:42.651Z,25.20
2018-05-23T12:47:10.106Z,25.30
2018-05-23T12:49:37.539Z,25.00
2018-05-23T12:52:04.999Z,24.60
2018-05-23T12:54:32.426Z,24.60
2018-05-23T12:56:59.884Z,24.90
2018-05-23T12:59:27.373Z,25.10
2018-05-23T13:01:55.603Z,24.80
2018-05-23T13:04:23.035Z,24.80
2018-05-23T13:06:50.487Z,24.60
2018-05-23T13:09:17.990Z,24.40
2018-05-23T13:11:45.455Z,24.40
2018-05-23T13:14:12.895Z,24.40
2018-05-23T13:16:40.446Z,24.50
2018-05-23T13:19:07.903Z,24.30
2018-05-23T13:21:35.383Z,24.20
2018-05-23T13:24:03.594Z,24.50
2018-05-23T13:26:31.049Z,24.50
2018-05-23T13:28:58.527Z,24.50
2018-05-23T13:31:25.974Z,24.50
2018-05-23T13:33:53.470Z,24.30
2018-05-23T13:36:20.968Z,24.60
2018-05-23T13:38:49.234Z,25.00
2018-05-23T13:41:16.681Z,25.00
2018-05-23T13:43:44.158Z,24.90
2018-05-23T13:46:11.630Z,24.30
2018-05-23T13:48:39.093Z,24.00
2018-05-23T13:51:07.325Z,24.20
2018-05-23T13:53:34.762Z,24.20
2018-05-23T13:56:02.217Z,24.30
2018-05-23T13:58:29.678Z,24.30
2018-05-23T14:00:57.133Z,24.50
2018-05-23T14:03:25.357Z,25.00
2018-05-23T14:05:52.884Z,25.00
2018-05-23T14:08:20.321Z,25.00
2018-05-23T14:10:47.767Z,25.00
2018-05-23T14:13:15.265Z,25.20
2018-05-23T14:15:43.479Z,25.10
2018-05-23T14:18:10.921Z,25.10
2018-05-23T14:20:39.266Z,25.10
2018-05-23T14:23:06.709Z,24.50
2018-05-23T14:25:34.162Z,24.30
2018-05-23T14:28:01.626Z,24.60
2018-05-23T14:30:29.355Z,24.70
2018-05-23T14:32:56.793Z,24.70
2018-05-23T14:35:24.246Z,24.80
2018-05-23T14:37:51.738Z,24.70
2018-05-23T14:40:19.955Z,24.80
2018-05-23T14:42:47.467Z,24.70
2018-05-23T14:45:14.901Z,24.60
2018-05-23T14:47:42.361Z,24.20
2018-05-23T14:50:09.877Z,24.30
2018-05-23T14:52:37.371Z,24.40
2018-05-23T14:55:04.895Z,24.50
2018-05-23T14:57:32.358Z,24.60
2018-05-23T14:59:59.810Z,24.70
2018-05-23T15:02:27.475Z,24.50
2018-05-23T15:04:55.688Z,24.20
2018-05-23T15:07:23.130Z,24.20
2018-05-23T15:09:50.599Z,24.00
2018-05-23T15:12:18.135Z,24.10
2018-05-23T15:14:45.620Z,24.20
2018-05-23T15:17:13.488Z,24.40
2018-05-23T15:19:41.741Z,24.90
2018-05-23T15:22:09.213Z,24.90
2018-05-23T15:24:36.665Z,25.00
2018-05-23T15:27:04.716Z,24.90
2018-05-23T15:29:32.903Z,24.50
2018-05-23T15:32:00.346Z,24.50
2018-05-23T15:34:27.865Z,24.80
2018-05-23T15:36:55.298Z,25.00
2018-05-23T15:39:22.738Z,25.00
2018-05-23T15:41:50.210Z,25.10
2018-05-23T15:44:17.634Z,25.10
2018-05-23T15:46:45.110Z,25.00
2018-05-23T15:49:12.574Z,25.20
2018-05-23T15:51:40.019Z,25.00
2018-05-23T15:54:08.244Z,24.70
2018-05-23T15:56:35.766Z,24.70
2018-05-23T15:59:03.194Z,24.50
2018-05-23T16:01:30.658Z,24.50
2018-05-23T16:03:58.111Z,24.30
2018-05-23T16:06:25.596Z,24.10
2018-05-23T16:08:53.063Z,24.20
2018-05-23T16:11:21.272Z,24.10
2018-05-23T16:13:48.782Z,24.10
2018-05-23T16:16:16.231Z,24.00
2018-05-23T16:18:43.737Z,24.10
2018-05-23T16:21:11.970Z,24.10
2018-05-23T16:23:39.414Z,24.20
2018-05-23T16:26:06.878Z,24.20
2018-05-23T16:28:35.150Z,24.10
2018-05-23T16:31:03.442Z,24.10
2018-05-23T16:33:30.889Z,24.10
2018-05-23T16:35:58.329Z,24.00
2018-05-23T16:38:25.790Z,24.00
2018-05-23T16:40:53.271Z,24.00
2018-05-23T16:43:20.782Z,24.00
2018-05-23T16:45:48.217Z,23.90
2018-05-23T16:48:15.675Z,23.70
2018-05-23T16:50:43.113Z,23.80
2018-05-23T16:53:10.550Z,23.70
2018-05-23T16:55:37.998Z,23.50
2018-05-23T16:58:05.455Z,23.30
2018-05-23T17:00:32.907Z,23.30
2018-05-23T17:03:00.353Z,23.30
2018-05-23T17:05:28.596Z,23.20
2018-05-23T17:07:56.847Z,23.10
2018-05-23T17:10:24.307Z,23.00
2018-05-23T17:12:51.781Z,23.00
2018-05-23T17:15:21.099Z,22.90
2018-05-23T17:17:48.609Z,22.90
2018-05-23T17:20:16.814Z,22.80
2018-05-23T17:22:44.278Z,22.80
2018-05-23T17:25:11.724Z,22.80
2018-05-23T17:27:39.185Z,22.80
2018-05-23T17:30:06.628Z,22.90
2018-05-23T17:32:34.101Z,22.80
2018-05-23T17:35:02.311Z,22.80
2018-05-23T17:37:29.827Z,22.80
2018-05-23T17:39:57.377Z,22.80
2018-05-23T17:42:24.810Z,22.70
2018-05-23T17:44:52.255Z,22.70
2018-05-23T17:47:19.876Z,22.60
2018-05-23T17:49:47.340Z,22.60
2018-05-23T17:52:14.782Z,22.60
2018-05-23T17:54:42.271Z,22.70
2018-05-23T17:57:09.702Z,22.60
2018-05-23T17:59:37.161Z,22.50
2018-05-23T18:02:04.605Z,22.50
2018-05-23T18:04:32.069Z,22.50
2018-05-23T18:07:00.287Z,22.50
2018-05-23T18:09:27.750Z,22.50
2018-05-23T18:11:55.202Z,22.50
2018-05-23T18:14:22.659Z,22.50
2018-05-23T18:16:50.203Z,22.50
2018-05-23T18:19:17.577Z,22.50
2018-05-23T18:21:45.037Z,22.40
2018-05-23T18:24:12.493Z,22.40
2018-05-23T18:26:39.938Z,22.30
2018-05-23T18:29:08.140Z,22.30
2018-05-23T18:31:36.343Z,22.30
2018-05-23T18:34:03.798Z,22.30
2018-05-23T18:36:31.248Z,22.30
2018-05-23T18:38:58.767Z,22.30
2018-05-23T18:41:26.240Z,22.30
2018-05-23T18:43:53.691Z,22.20
2018-05-23T18:46:21.186Z,22.20
2018-05-23T18:48:48.649Z,22.10
2018-05-23T18:51:16.099Z,22.00
2018-05-23T18:53:43.629Z,22.00
2018-05-23T18:56:11.068Z,22.00
2018-05-23T18:58:38.516Z,21.90
2018-05-23T19:01:05.972Z,21.80
2018-05-23T19:03:33.406Z,21.90
2018-05-23T19:06:00.899Z,21.90
2018-05-23T19:08:29.130Z,21.80
2018-05-23T19:10:56.585Z,21.80
2018-05-23T19:13:24.032Z,21.80
2018-05-23T19:15:51.638Z,21.80
2018-05-23T19:18:19.088Z,21.80
2018-05-23T19:20:47.291Z,21.90
2018-05-23T19:23:15.498Z,21.80
2018-05-23T19:25:42.971Z,21.80
2018-05-23T19:28:10.431Z,21.80
2018-05-23T19:30:37.877Z,21.60
2018-05-23T19:33:06.084Z,21.60
2018-05-23T19:35:33.522Z,21.50
2018-05-23T19:38:01.031Z,21.40
2018-05-23T19:40:28.517Z,21.30
2018-05-23T19:42:55.977Z,21.30
2018-05-23T19:45:23.430Z,21.30
2018-05-23T19:47:50.889Z,21.30
2018-05-23T19:50:18.344Z,21.30
2018-05-23T19:52:46.598Z,21.20
2018-05-23T19:55:14.004Z,21.20
2018-05-23T19:57:41.482Z,21.30
2018-05-23T20:02:42.830Z,21.30
2018-05-23T20:05:10.267Z,21.30
2018-05-23T20:07:38.467Z,21.00
2018-05-23T20:10:05.914Z,21.00
2018-05-23T20:12:33.370Z,20.80
2018-05-23T20:15:00.834Z,20.80
2018-05-23T20:17:28.276Z,20.80
2018-05-23T20:19:55.765Z,20.80
2018-05-23T20:22:23.251Z,20.80
2018-05-23T20:24:50.704Z,20.70
2018-05-23T20:27:18.153Z,20.60
2018-05-23T20:29:45.605Z,20.10
2018-05-23T20:32:13.046Z,19.60
2018-05-23T20:34:40.490Z,19.20
2018-05-23T20:37:07.940Z,19.00
2018-05-23T20:39:35.452Z,18.90
2018-05-23T20:42:03.661Z,18.80
2018-05-23T20:44:31.882Z,18.70
2018-05-23T20:46:59.325Z,18.70
2018-05-23T20:49:26.801Z,18.60
2018-05-23T20:51:55.010Z,18.40
2018-05-23T20:54:22.466Z,18.30
2018-05-23T20:56:49.926Z,18.20
2018-05-23T20:59:17.380Z,18.20
2018-05-23T21:01:45.585Z,18.00
2018-05-23T21:04:13.086Z,18.00
2018-05-23T21:06:41.298Z,18.00
2018-05-23T21:09:08.748Z,18.00
2018-05-23T21:11:36.248Z,18.00
2018-05-23T21:14:03.669Z,18.00
2018-05-23T21:16:31.893Z,18.00
2018-05-23T21:18:59.355Z,18.00
2018-05-23T21:21:26.798Z,18.00
2018-05-23T21:23:54.262Z,17.90
2018-05-23T21:26:22.484Z,17.90
2018-05-23T21:28:49.952Z,17.90
2018-05-23T21:31:17.410Z,17.90
2018-05-23T21:33:45.626Z,17.90
2018-05-23T21:36:13.057Z,17.90
2018-05-23T21:38:40.538Z,17.90
2018-05-23T21:41:07.951Z,18.00
2018-05-23T21:43:35.425Z,18.00
2018-05-23T21:46:02.861Z,18.00
2018-05-23T21:48:30.308Z,18.00
2018-05-23T21:50:57.768Z,18.00
2018-05-23T21:53:25.198Z,18.00
2018-05-23T21:55:52.658Z,18.00
2018-05-23T21:58:20.861Z,18.10
2018-05-23T22:00:48.308Z,18.10
2018-05-23T22:03:15.747Z,18.10
2018-05-23T22:05:43.191Z,18.00
2018-05-23T22:08:10.662Z,18.10
2018-05-23T22:10:38.874Z,18.00
2018-05-23T22:13:06.310Z,18.00
2018-05-23T22:15:33.749Z,18.00
2018-05-23T22:18:01.186Z,18.10
2018-05-23T22:20:29.399Z,18.00
2018-05-23T22:22:56.850Z,18.00
2018-05-23T22:25:24.303Z,18.00
2018-05-23T22:27:51.733Z,18.00
2018-05-23T22:30:19.185Z,17.90
2018-05-23T22:32:46.633Z,17.90
2018-05-23T22:35:14.082Z,17.90
2018-05-23T22:37:41.510Z,17.90
2018-05-23T22:40:08.961Z,17.80
2018-05-23T22:42:36.409Z,17.80
2018-05-23T22:45:03.866Z,17.80
2018-05-23T22:47:31.310Z,17.80
2018-05-23T22:49:59.518Z,17.70
2018-05-23T22:52:26.953Z,17.70
2018-05-23T22:54:54.393Z,17.70
2018-05-23T22:57:21.852Z,17.70
2018-05-23T22:59:49.283Z,17.70
2018-05-23T23:02:16.730Z,17.80
2018-05-23T23:04:44.171Z,17.80
2018-05-23T23:07:11.617Z,17.80
2018-05-23T23:09:39.068Z,17.80
2018-05-23T23:12:06.522Z,17.80
2018-05-23T23:14:34.722Z,17.80
2018-05-23T23:17:02.927Z,17.90
2018-05-23T23:19:30.364Z,17.90
2018-05-23T23:21:57.807Z,17.90
2018-05-23T23:24:25.241Z,17.90
2018-05-23T23:26:52.711Z,18.00
2018-05-23T23:29:20.146Z,18.00
2018-05-23T23:31:47.599Z,17.90
2018-05-23T23:34:15.052Z,17.90
2018-05-23T23:36:42.523Z,18.00
2018-05-23T23:39:10.726Z,18.00
2018-05-23T23:41:38.166Z,18.00
2018-05-23T23:44:05.613Z,18.00
2018-05-23T23:46:33.054Z,18.00
2018-05-23T23:49:00.500Z,17.90
2018-05-23T23:51:27.979Z,17.90
2018-05-23T23:53:55.431Z,18.00
2018-05-23T23:56:22.870Z,18.00
2018-05-23T23:58:51.067Z,18.00
